Woodstock, Canada
Current Conditions -  °F | °C
As of 4:00 PM on Thursday 23 Oct 2014 (Local Time) from CYXU Reporting Station
Few Clouds Few Clouds  
Wind Chill: 57°   Ceiling: Unl
Heat Index: 57°   Visibility: 15mi
Dew Point: 46°   Wind: 10mph
Humidity: 67%   Direction: 290°WNW
Pressure: 30.11"   Gusts: 20mph
Location:  43.13°N, 80.75°W
Report Text: CYXU 232000Z 29009G17KT 15SM FEW030 14/08 A3011 RMK CU1 SLP203
Loading
Personal Weather Stations






























Interactive Weather Map
Tropical Storm Tracking
New forecast layout! Learn more

10-Day Weather Forecast

Advertisements
Track Severe Weather on mobile